sensor_id;sensor_type;location;lat;lon;timestamp;temperature;humidity
66102;HTU21D;52883;51.094;5.880;2023-05-07T00:01:02;12.86;118.99
66102;HTU21D;52883;51.094;5.880;2023-05-07T00:03:27;12.85;118.99
66102;HTU21D;52883;51.094;5.880;2023-05-07T00:05:54;12.86;118.99
66102;HTU21D;52883;51.094;5.880;2023-05-07T00:08:19;12.87;118.99
66102;HTU21D;52883;51.094;5.880;2023-05-07T00:10:46;12.82;118.99
66102;HTU21D;52883;51.094;5.880;2023-05-07T00:13:12;12.84;118.99
66102;HTU21D;52883;51.094;5.880;2023-05-07T00:15:37;12.88;118.99
66102;HTU21D;52883;51.094;5.880;2023-05-07T00:18:03;12.94;118.99
66102;HTU21D;52883;51.094;5.880;2023-05-07T00:20:28;12.97;118.99
66102;HTU21D;52883;51.094;5.880;2023-05-07T00:22:54;13.02;118.99
66102;HTU21D;52883;51.094;5.880;2023-05-07T00:25:20;13.07;118.99
66102;HTU21D;52883;51.094;5.880;2023-05-07T00:27:45;13.10;118.99
66102;HTU21D;52883;51.094;5.880;2023-05-07T00:30:11;13.10;118.99
66102;HTU21D;52883;51.094;5.880;2023-05-07T00:32:37;13.11;118.99
66102;HTU21D;52883;51.094;5.880;2023-05-07T00:35:04;13.11;118.99
66102;HTU21D;52883;51.094;5.880;2023-05-07T00:37:30;13.08;118.99
66102;HTU21D;52883;51.094;5.880;2023-05-07T00:40:01;13.06;118.99
66102;HTU21D;52883;51.094;5.880;2023-05-07T00:42:30;13.06;118.99
66102;HTU21D;52883;51.094;5.880;2023-05-07T00:44:58;13.09;118.99
66102;HTU21D;52883;51.094;5.880;2023-05-07T00:47:25;13.11;118.99
66102;HTU21D;52883;51.094;5.880;2023-05-07T00:49:50;13.17;118.99
66102;HTU21D;52883;51.094;5.880;2023-05-07T00:52:19;13.20;118.99
66102;HTU21D;52883;51.094;5.880;2023-05-07T00:54:45;13.22;118.99
66102;HTU21D;52883;51.094;5.880;2023-05-07T00:57:11;13.26;118.99
66102;HTU21D;52883;51.094;5.880;2023-05-07T00:59:37;13.27;118.99
66102;HTU21D;52883;51.094;5.880;2023-05-07T01:02:03;13.27;118.99
66102;HTU21D;52883;51.094;5.880;2023-05-07T01:04:29;13.24;118.99
66102;HTU21D;52883;51.094;5.880;2023-05-07T01:06:57;13.20;118.99
66102;HTU21D;52883;51.094;5.880;2023-05-07T01:09:25;13.19;118.99
66102;HTU21D;52883;51.094;5.880;2023-05-07T01:11:52;13.17;118.99
66102;HTU21D;52883;51.094;5.880;2023-05-07T01:14:20;13.16;118.99
66102;HTU21D;52883;51.094;5.880;2023-05-07T01:16:47;13.10;118.99
66102;HTU21D;52883;51.094;5.880;2023-05-07T01:19:17;13.08;118.99
66102;HTU21D;52883;51.094;5.880;2023-05-07T01:21:48;13.08;118.99
66102;HTU21D;52883;51.094;5.880;2023-05-07T01:24:16;13.08;118.99
66102;HTU21D;52883;51.094;5.880;2023-05-07T01:26:43;13.06;118.99
66102;HTU21D;52883;51.094;5.880;2023-05-07T01:29:11;13.04;118.99
66102;HTU21D;52883;51.094;5.880;2023-05-07T01:31:39;13.07;118.99
66102;HTU21D;52883;51.094;5.880;2023-05-07T01:34:09;13.06;118.99
66102;HTU21D;52883;51.094;5.880;2023-05-07T01:36:38;13.05;118.99
66102;HTU21D;52883;51.094;5.880;2023-05-07T01:39:06;13.03;118.99
66102;HTU21D;52883;51.094;5.880;2023-05-07T01:41:32;13.00;118.99
66102;HTU21D;52883;51.094;5.880;2023-05-07T01:43:58;12.94;118.99
66102;HTU21D;52883;51.094;5.880;2023-05-07T01:46:26;12.87;118.99
66102;HTU21D;52883;51.094;5.880;2023-05-07T01:48:52;12.81;118.99
66102;HTU21D;52883;51.094;5.880;2023-05-07T01:51:18;12.76;118.99
66102;HTU21D;52883;51.094;5.880;2023-05-07T01:53:45;12.72;118.99
66102;HTU21D;52883;51.094;5.880;2023-05-07T01:56:17;12.66;118.99
66102;HTU21D;52883;51.094;5.880;2023-05-07T01:58:47;12.62;118.99
66102;HTU21D;52883;51.094;5.880;2023-05-07T02:01:13;12.59;118.99
66102;HTU21D;52883;51.094;5.880;2023-05-07T02:03:41;12.57;118.99
66102;HTU21D;52883;51.094;5.880;2023-05-07T02:06:14;12.51;118.99
66102;HTU21D;52883;51.094;5.880;2023-05-07T02:08:39;12.46;118.99
66102;HTU21D;52883;51.094;5.880;2023-05-07T02:11:05;12.44;118.99
66102;HTU21D;52883;51.094;5.880;2023-05-07T02:13:32;12.44;118.99
66102;HTU21D;52883;51.094;5.880;2023-05-07T02:15:58;12.47;118.99
66102;HTU21D;52883;51.094;5.880;2023-05-07T02:18:25;12.50;118.99
66102;HTU21D;52883;51.094;5.880;2023-05-07T02:20:51;12.52;118.99
66102;HTU21D;52883;51.094;5.880;2023-05-07T02:23:17;12.58;118.99
66102;HTU21D;52883;51.094;5.880;2023-05-07T02:25:42;12.59;118.99
66102;HTU21D;52883;51.094;5.880;2023-05-07T02:28:08;12.61;118.99
66102;HTU21D;52883;51.094;5.880;2023-05-07T02:30:52;12.63;118.99
66102;HTU21D;52883;51.094;5.880;2023-05-07T02:33:18;12.67;118.99
66102;HTU21D;52883;51.094;5.880;2023-05-07T02:35:44;12.71;118.99
66102;HTU21D;52883;51.094;5.880;2023-05-07T02:38:12;12.75;118.99
66102;HTU21D;52883;51.094;5.880;2023-05-07T02:40:39;12.79;118.99
66102;HTU21D;52883;51.094;5.880;2023-05-07T02:43:05;12.80;118.99
66102;HTU21D;52883;51.094;5.880;2023-05-07T02:45:32;12.81;118.99
66102;HTU21D;52883;51.094;5.880;2023-05-07T02:47:58;12.82;118.99
66102;HTU21D;52883;51.094;5.880;2023-05-07T02:50:24;12.84;118.99
66102;HTU21D;52883;51.094;5.880;2023-05-07T02:52:50;12.81;118.99
66102;HTU21D;52883;51.094;5.880;2023-05-07T02:55:16;12.79;118.99
66102;HTU21D;52883;51.094;5.880;2023-05-07T02:57:42;12.79;118.99
66102;HTU21D;52883;51.094;5.880;2023-05-07T03:00:15;12.76;118.99
66102;HTU21D;52883;51.094;5.880;2023-05-07T03:02:48;12.75;118.99
66102;HTU21D;52883;51.094;5.880;2023-05-07T03:05:14;12.76;118.99
66102;HTU21D;52883;51.094;5.880;2023-05-07T03:07:40;12.75;118.99
66102;HTU21D;52883;51.094;5.880;2023-05-07T03:10:09;12.72;118.99
66102;HTU21D;52883;51.094;5.880;2023-05-07T03:12:35;12.74;118.99
66102;HTU21D;52883;51.094;5.880;2023-05-07T03:15:01;12.73;118.99
66102;HTU21D;52883;51.094;5.880;2023-05-07T03:17:27;12.71;118.99
66102;HTU21D;52883;51.094;5.880;2023-05-07T03:19:52;12.69;118.99
66102;HTU21D;52883;51.094;5.880;2023-05-07T03:22:18;12.67;118.99
66102;HTU21D;52883;51.094;5.880;2023-05-07T03:24:43;12.70;118.99
66102;HTU21D;52883;51.094;5.880;2023-05-07T03:27:09;12.72;118.99
66102;HTU21D;52883;51.094;5.880;2023-05-07T03:29:35;12.72;118.99
66102;HTU21D;52883;51.094;5.880;2023-05-07T03:32:01;12.74;118.99
66102;HTU21D;52883;51.094;5.880;2023-05-07T03:34:27;12.74;118.99
66102;HTU21D;52883;51.094;5.880;2023-05-07T03:36:52;12.74;118.99
66102;HTU21D;52883;51.094;5.880;2023-05-07T03:39:18;12.74;118.99
66102;HTU21D;52883;51.094;5.880;2023-05-07T03:41:44;12.74;118.99
66102;HTU21D;52883;51.094;5.880;2023-05-07T03:44:10;12.75;118.99
66102;HTU21D;52883;51.094;5.880;2023-05-07T03:46:36;12.77;118.99
66102;HTU21D;52883;51.094;5.880;2023-05-07T03:49:02;12.77;118.99
66102;HTU21D;52883;51.094;5.880;2023-05-07T03:51:28;12.76;118.99
66102;HTU21D;52883;51.094;5.880;2023-05-07T03:53:54;12.73;118.99
66102;HTU21D;52883;51.094;5.880;2023-05-07T03:56:20;12.70;118.99
66102;HTU21D;52883;51.094;5.880;2023-05-07T03:58:50;12.66;118.99
66102;HTU21D;52883;51.094;5.880;2023-05-07T04:01:15;12.62;118.99
66102;HTU21D;52883;51.094;5.880;2023-05-07T04:03:41;12.59;118.99
66102;HTU21D;52883;51.094;5.880;2023-05-07T04:06:07;12.53;118.99
66102;HTU21D;52883;51.094;5.880;2023-05-07T04:08:34;12.51;118.99
66102;HTU21D;52883;51.094;5.880;2023-05-07T04:11:00;12.48;118.99
66102;HTU21D;52883;51.094;5.880;2023-05-07T04:13:30;12.47;118.99
66102;HTU21D;52883;51.094;5.880;2023-05-07T04:15:57;12.45;118.99
66102;HTU21D;52883;51.094;5.880;2023-05-07T04:18:23;12.47;118.99
66102;HTU21D;52883;51.094;5.880;2023-05-07T04:20:49;12.51;118.99
66102;HTU21D;52883;51.094;5.880;2023-05-07T04:23:15;12.53;118.99
66102;HTU21D;52883;51.094;5.880;2023-05-07T04:25:41;12.57;118.99
66102;HTU21D;52883;51.094;5.880;2023-05-07T04:28:21;12.61;118.99
66102;HTU21D;52883;51.094;5.880;2023-05-07T04:30:46;12.69;118.99
66102;HTU21D;52883;51.094;5.880;2023-05-07T04:33:14;12.74;118.99
66102;HTU21D;52883;51.094;5.880;2023-05-07T04:35:42;12.82;118.99
66102;HTU21D;52883;51.094;5.880;2023-05-07T04:38:08;12.91;118.99
66102;HTU21D;52883;51.094;5.880;2023-05-07T04:40:35;13.03;118.99
66102;HTU21D;52883;51.094;5.880;2023-05-07T04:43:01;13.11;118.99
66102;HTU21D;52883;51.094;5.880;2023-05-07T04:45:30;13.20;118.99
66102;HTU21D;52883;51.094;5.880;2023-05-07T04:47:55;13.26;118.99
66102;HTU21D;52883;51.094;5.880;2023-05-07T04:50:21;13.33;118.99
66102;HTU21D;52883;51.094;5.880;2023-05-07T04:52:49;13.41;118.99
66102;HTU21D;52883;51.094;5.880;2023-05-07T04:55:15;13.53;118.99
66102;HTU21D;52883;51.094;5.880;2023-05-07T04:57:41;13.66;118.99
66102;HTU21D;52883;51.094;5.880;2023-05-07T05:00:09;13.78;118.99
66102;HTU21D;52883;51.094;5.880;2023-05-07T05:02:37;13.89;118.99
66102;HTU21D;52883;51.094;5.880;2023-05-07T05:05:03;14.00;118.99
66102;HTU21D;52883;51.094;5.880;2023-05-07T05:07:29;14.19;118.99
66102;HTU21D;52883;51.094;5.880;2023-05-07T05:09:54;14.39;118.99
66102;HTU21D;52883;51.094;5.880;2023-05-07T05:12:21;14.58;118.99
66102;HTU21D;52883;51.094;5.880;2023-05-07T05:14:48;14.69;118.99
66102;HTU21D;52883;51.094;5.880;2023-05-07T05:17:14;14.82;118.99
66102;HTU21D;52883;51.094;5.880;2023-05-07T05:19:40;14.96;118.99
66102;HTU21D;52883;51.094;5.880;2023-05-07T05:22:05;15.18;118.99
66102;HTU21D;52883;51.094;5.880;2023-05-07T05:24:31;15.38;118.99
66102;HTU21D;52883;51.094;5.880;2023-05-07T05:26:58;15.41;118.99
66102;HTU21D;52883;51.094;5.880;2023-05-07T05:29:28;15.31;118.99
66102;HTU21D;52883;51.094;5.880;2023-05-07T05:31:54;15.30;118.99
66102;HTU21D;52883;51.094;5.880;2023-05-07T05:34:20;15.31;118.99
66102;HTU21D;52883;51.094;5.880;2023-05-07T05:36:48;15.33;118.99
66102;HTU21D;52883;51.094;5.880;2023-05-07T05:39:14;15.39;118.99
66102;HTU21D;52883;51.094;5.880;2023-05-07T05:41:40;15.46;118.99
66102;HTU21D;52883;51.094;5.880;2023-05-07T05:44:07;15.48;118.99
66102;HTU21D;52883;51.094;5.880;2023-05-07T05:46:33;15.48;118.99
66102;HTU21D;52883;51.094;5.880;2023-05-07T05:48:58;15.49;118.99
66102;HTU21D;52883;51.094;5.880;2023-05-07T05:51:24;15.48;118.99
66102;HTU21D;52883;51.094;5.880;2023-05-07T05:53:50;15.44;118.99
66102;HTU21D;52883;51.094;5.880;2023-05-07T05:56:16;15.41;118.99
66102;HTU21D;52883;51.094;5.880;2023-05-07T05:58:42;15.37;118.99
66102;HTU21D;52883;51.094;5.880;2023-05-07T06:01:08;15.32;118.99
66102;HTU21D;52883;51.094;5.880;2023-05-07T06:03:35;15.38;118.99
66102;HTU21D;52883;51.094;5.880;2023-05-07T06:06:06;15.43;118.99
66102;HTU21D;52883;51.094;5.880;2023-05-07T06:08:31;15.49;118.99
66102;HTU21D;52883;51.094;5.880;2023-05-07T06:10:58;15.53;118.99
66102;HTU21D;52883;51.094;5.880;2023-05-07T06:13:25;15.59;118.99
66102;HTU21D;52883;51.094;5.880;2023-05-07T06:15:50;15.66;118.99
66102;HTU21D;52883;51.094;5.880;2023-05-07T06:18:16;15.80;118.99
66102;HTU21D;52883;51.094;5.880;2023-05-07T06:20:42;15.95;118.99
66102;HTU21D;52883;51.094;5.880;2023-05-07T06:23:14;16.08;118.99
66102;HTU21D;52883;51.094;5.880;2023-05-07T06:25:39;16.26;118.99
66102;HTU21D;52883;51.094;5.880;2023-05-07T06:28:05;16.50;118.99
66102;HTU21D;52883;51.094;5.880;2023-05-07T06:30:33;16.62;118.99
66102;HTU21D;52883;51.094;5.880;2023-05-07T06:32:59;16.76;118.99
66102;HTU21D;52883;51.094;5.880;2023-05-07T06:35:26;17.00;118.99
66102;HTU21D;52883;51.094;5.880;2023-05-07T06:37:52;17.22;118.99
66102;HTU21D;52883;51.094;5.880;2023-05-07T06:40:22;17.31;118.99
66102;HTU21D;52883;51.094;5.880;2023-05-07T06:42:48;17.39;118.99
66102;HTU21D;52883;51.094;5.880;2023-05-07T06:45:32;17.49;118.99
66102;HTU21D;52883;51.094;5.880;2023-05-07T06:47:58;17.72;118.99
66102;HTU21D;52883;51.094;5.880;2023-05-07T06:50:25;17.82;118.99
66102;HTU21D;52883;51.094;5.880;2023-05-07T06:52:55;17.99;118.99
66102;HTU21D;52883;51.094;5.880;2023-05-07T06:55:21;18.15;118.99
66102;HTU21D;52883;51.094;5.880;2023-05-07T06:57:46;18.29;118.99
66102;HTU21D;52883;51.094;5.880;2023-05-07T07:00:14;18.53;118.99
66102;HTU21D;52883;51.094;5.880;2023-05-07T07:02:48;18.70;118.99
66102;HTU21D;52883;51.094;5.880;2023-05-07T07:05:16;18.84;118.99
66102;HTU21D;52883;51.094;5.880;2023-05-07T07:07:42;18.92;118.99
66102;HTU21D;52883;51.094;5.880;2023-05-07T07:10:09;18.88;118.99
66102;HTU21D;52883;51.094;5.880;2023-05-07T07:12:35;18.81;118.99
66102;HTU21D;52883;51.094;5.880;2023-05-07T07:15:00;18.93;118.99
66102;HTU21D;52883;51.094;5.880;2023-05-07T07:17:27;18.96;118.99
66102;HTU21D;52883;51.094;5.880;2023-05-07T07:19:54;18.98;118.99
66102;HTU21D;52883;51.094;5.880;2023-05-07T07:22:20;19.02;118.99
66102;HTU21D;52883;51.094;5.880;2023-05-07T07:24:46;19.02;118.99
66102;HTU21D;52883;51.094;5.880;2023-05-07T07:27:14;19.18;118.99
66102;HTU21D;52883;51.094;5.880;2023-05-07T07:29:40;19.37;118.99
66102;HTU21D;52883;51.094;5.880;2023-05-07T07:32:06;19.60;118.99
66102;HTU21D;52883;51.094;5.880;2023-05-07T07:34:32;19.87;118.99
66102;HTU21D;52883;51.094;5.880;2023-05-07T07:36:59;20.18;118.99
66102;HTU21D;52883;51.094;5.880;2023-05-07T07:39:31;20.48;118.99
66102;HTU21D;52883;51.094;5.880;2023-05-07T07:41:57;20.72;118.99
66102;HTU21D;52883;51.094;5.880;2023-05-07T07:44:24;21.04;118.99
66102;HTU21D;52883;51.094;5.880;2023-05-07T07:46:56;21.45;118.99
66102;HTU21D;52883;51.094;5.880;2023-05-07T07:49:23;21.82;118.99
66102;HTU21D;52883;51.094;5.880;2023-05-07T07:51:49;22.11;118.99
66102;HTU21D;52883;51.094;5.880;2023-05-07T07:54:15;22.38;118.99
66102;HTU21D;52883;51.094;5.880;2023-05-07T07:56:42;22.78;118.99
66102;HTU21D;52883;51.094;5.880;2023-05-07T07:59:09;23.28;118.99
66102;HTU21D;52883;51.094;5.880;2023-05-07T08:01:38;23.89;118.99
66102;HTU21D;52883;51.094;5.880;2023-05-07T08:04:04;24.62;118.99
66102;HTU21D;52883;51.094;5.880;2023-05-07T08:06:33;25.53;118.99
66102;HTU21D;52883;51.094;5.880;2023-05-07T08:08:59;25.88;118.99
66102;HTU21D;52883;51.094;5.880;2023-05-07T08:11:24;26.53;118.99
66102;HTU21D;52883;51.094;5.880;2023-05-07T08:13:54;27.40;118.99
66102;HTU21D;52883;51.094;5.880;2023-05-07T08:16:20;28.11;118.99
66102;HTU21D;52883;51.094;5.880;2023-05-07T08:18:46;28.71;118.99
66102;HTU21D;52883;51.094;5.880;2023-05-07T08:21:12;28.87;118.99
66102;HTU21D;52883;51.094;5.880;2023-05-07T08:23:38;29.11;118.99
66102;HTU21D;52883;51.094;5.880;2023-05-07T08:26:04;28.79;118.99
66102;HTU21D;52883;51.094;5.880;2023-05-07T08:28:30;27.97;118.99
66102;HTU21D;52883;51.094;5.880;2023-05-07T08:30:55;27.37;118.99
66102;HTU21D;52883;51.094;5.880;2023-05-07T08:33:27;27.07;118.99
66102;HTU21D;52883;51.094;5.880;2023-05-07T08:35:53;27.08;118.99
66102;HTU21D;52883;51.094;5.880;2023-05-07T08:38:19;26.96;118.99
66102;HTU21D;52883;51.094;5.880;2023-05-07T08:40:52;26.93;118.99
66102;HTU21D;52883;51.094;5.880;2023-05-07T08:43:26;27.10;118.99
66102;HTU21D;52883;51.094;5.880;2023-05-07T08:45:54;27.28;118.99
66102;HTU21D;52883;51.094;5.880;2023-05-07T08:48:25;27.34;118.99
66102;HTU21D;52883;51.094;5.880;2023-05-07T08:50:58;27.14;118.99
66102;HTU21D;52883;51.094;5.880;2023-05-07T08:53:25;27.20;118.99
66102;HTU21D;52883;51.094;5.880;2023-05-07T08:55:51;26.93;118.99
66102;HTU21D;52883;51.094;5.880;2023-05-07T08:58:17;26.92;118.99
66102;HTU21D;52883;51.094;5.880;2023-05-07T09:00:42;26.98;118.99
66102;HTU21D;52883;51.094;5.880;2023-05-07T09:03:09;26.99;118.99
66102;HTU21D;52883;51.094;5.880;2023-05-07T09:05:38;27.09;118.99
66102;HTU21D;52883;51.094;5.880;2023-05-07T09:08:07;27.13;118.99
66102;HTU21D;52883;51.094;5.880;2023-05-07T09:10:34;27.31;118.99
66102;HTU21D;52883;51.094;5.880;2023-05-07T09:13:02;27.29;118.99
66102;HTU21D;52883;51.094;5.880;2023-05-07T09:15:28;27.17;118.99
66102;HTU21D;52883;51.094;5.880;2023-05-07T09:17:59;26.94;118.99
66102;HTU21D;52883;51.094;5.880;2023-05-07T09:20:26;26.77;118.99
66102;HTU21D;52883;51.094;5.880;2023-05-07T09:22:55;26.76;118.99
66102;HTU21D;52883;51.094;5.880;2023-05-07T09:25:31;26.52;118.99
66102;HTU21D;52883;51.094;5.880;2023-05-07T09:28:00;26.24;118.99
66102;HTU21D;52883;51.094;5.880;2023-05-07T09:30:30;26.24;118.99
66102;HTU21D;52883;51.094;5.880;2023-05-07T09:33:00;26.24;118.99
66102;HTU21D;52883;51.094;5.880;2023-05-07T09:35:27;26.21;118.99
66102;HTU21D;52883;51.094;5.880;2023-05-07T09:37:59;26.28;118.99
66102;HTU21D;52883;51.094;5.880;2023-05-07T09:40:28;26.47;118.99
66102;HTU21D;52883;51.094;5.880;2023-05-07T09:42:56;26.51;118.99
66102;HTU21D;52883;51.094;5.880;2023-05-07T09:45:27;26.51;118.99
66102;HTU21D;52883;51.094;5.880;2023-05-07T09:47:55;26.65;118.99
66102;HTU21D;52883;51.094;5.880;2023-05-07T09:50:36;26.90;118.99
66102;HTU21D;52883;51.094;5.880;2023-05-07T09:53:06;27.26;118.99
66102;HTU21D;52883;51.094;5.880;2023-05-07T09:55:36;27.79;118.99
66102;HTU21D;52883;51.094;5.880;2023-05-07T09:58:04;28.11;118.99
66102;HTU21D;52883;51.094;5.880;2023-05-07T10:00:32;28.40;118.99
66102;HTU21D;52883;51.094;5.880;2023-05-07T10:03:09;28.65;118.99
66102;HTU21D;52883;51.094;5.880;2023-05-07T10:05:50;28.68;118.99
66102;HTU21D;52883;51.094;5.880;2023-05-07T10:08:18;28.54;118.99
66102;HTU21D;52883;51.094;5.880;2023-05-07T10:10:47;28.41;118.99
66102;HTU21D;52883;51.094;5.880;2023-05-07T10:13:19;28.37;118.99
66102;HTU21D;52883;51.094;5.880;2023-05-07T10:15:47;28.49;118.99
66102;HTU21D;52883;51.094;5.880;2023-05-07T10:18:14;28.71;118.99
66102;HTU21D;52883;51.094;5.880;2023-05-07T10:20:45;28.97;118.99
66102;HTU21D;52883;51.094;5.880;2023-05-07T10:23:15;29.58;118.99
66102;HTU21D;52883;51.094;5.880;2023-05-07T10:25:46;29.74;118.99
66102;HTU21D;52883;51.094;5.880;2023-05-07T10:28:20;30.15;118.99
66102;HTU21D;52883;51.094;5.880;2023-05-07T10:33:39;29.86;113.18
66102;HTU21D;52883;51.094;5.880;2023-05-07T10:36:05;29.45;115.34
66102;HTU21D;52883;51.094;5.880;2023-05-07T10:38:33;29.23;111.88
66102;HTU21D;52883;51.094;5.880;2023-05-07T10:41:00;28.84;118.23
66102;HTU21D;52883;51.094;5.880;2023-05-07T10:43:42;28.63;118.46
66102;HTU21D;52883;51.094;5.880;2023-05-07T10:46:10;28.55;111.41
66102;HTU21D;52883;51.094;5.880;2023-05-07T10:49:08;28.43;114.78
66102;HTU21D;52883;51.094;5.880;2023-05-07T10:51:42;28.30;112.53
66102;HTU21D;52883;51.094;5.880;2023-05-07T10:54:19;28.23;110.71
66102;HTU21D;52883;51.094;5.880;2023-05-07T10:56:53;28.40;110.60
66102;HTU21D;52883;51.094;5.880;2023-05-07T10:59:32;28.42;112.52
66102;HTU21D;52883;51.094;5.880;2023-05-07T11:02:07;28.57;111.95
66102;HTU21D;52883;51.094;5.880;2023-05-07T11:05:20;28.78;108.99
66102;HTU21D;52883;51.094;5.880;2023-05-07T11:08:02;28.97;111.07
66102;HTU21D;52883;51.094;5.880;2023-05-07T11:10:52;28.99;107.29
66102;HTU21D;52883;51.094;5.880;2023-05-07T11:13:45;28.89;105.02
66102;HTU21D;52883;51.094;5.880;2023-05-07T11:16:21;28.57;106.26
66102;HTU21D;52883;51.094;5.880;2023-05-07T11:18:54;28.16;110.56
66102;HTU21D;52883;51.094;5.880;2023-05-07T11:21:35;27.96;110.99
66102;HTU21D;52883;51.094;5.880;2023-05-07T11:24:27;27.83;111.02
66102;HTU21D;52883;51.094;5.880;2023-05-07T11:27:00;27.76;111.32
66102;HTU21D;52883;51.094;5.880;2023-05-07T11:29:27;27.71;112.08
66102;HTU21D;52883;51.094;5.880;2023-05-07T11:32:00;27.55;111.74
66102;HTU21D;52883;51.094;5.880;2023-05-07T11:34:31;27.15;114.01
66102;HTU21D;52883;51.094;5.880;2023-05-07T11:36:58;26.68;116.57
66102;HTU21D;52883;51.094;5.880;2023-05-07T11:39:36;26.37;118.99
66102;HTU21D;52883;51.094;5.880;2023-05-07T11:42:02;26.18;118.99
66102;HTU21D;52883;51.094;5.880;2023-05-07T11:44:42;25.97;118.99
66102;HTU21D;52883;51.094;5.880;2023-05-07T11:47:08;25.71;118.99
66102;HTU21D;52883;51.094;5.880;2023-05-07T11:49:34;25.45;118.99
66102;HTU21D;52883;51.094;5.880;2023-05-07T11:51:59;25.43;118.99
66102;HTU21D;52883;51.094;5.880;2023-05-07T11:54:25;25.15;118.99
66102;HTU21D;52883;51.094;5.880;2023-05-07T11:56:51;24.95;118.99
66102;HTU21D;52883;51.094;5.880;2023-05-07T11:59:17;24.74;118.99
66102;HTU21D;52883;51.094;5.880;2023-05-07T12:01:45;24.56;118.99
66102;HTU21D;52883;51.094;5.880;2023-05-07T12:04:11;24.19;118.99
66102;HTU21D;52883;51.094;5.880;2023-05-07T12:06:37;23.35;118.99
66102;HTU21D;52883;51.094;5.880;2023-05-07T12:09:03;22.63;118.99
66102;HTU21D;52883;51.094;5.880;2023-05-07T12:11:30;22.02;118.99
66102;HTU21D;52883;51.094;5.880;2023-05-07T12:13:55;21.55;118.99
66102;HTU21D;52883;51.094;5.880;2023-05-07T12:16:21;21.19;118.99
66102;HTU21D;52883;51.094;5.880;2023-05-07T12:18:47;20.84;118.99
66102;HTU21D;52883;51.094;5.880;2023-05-07T12:21:13;20.63;118.99
66102;HTU21D;52883;51.094;5.880;2023-05-07T12:23:40;20.54;118.99
66102;HTU21D;52883;51.094;5.880;2023-05-07T12:26:06;20.42;118.99
66102;HTU21D;52883;51.094;5.880;2023-05-07T12:28:36;20.32;118.99
66102;HTU21D;52883;51.094;5.880;2023-05-07T12:31:03;20.36;118.99
66102;HTU21D;52883;51.094;5.880;2023-05-07T12:33:29;20.36;118.99
66102;HTU21D;52883;51.094;5.880;2023-05-07T12:36:05;20.33;118.99
66102;HTU21D;52883;51.094;5.880;2023-05-07T12:38:38;20.33;118.99
66102;HTU21D;52883;51.094;5.880;2023-05-07T12:41:05;20.32;118.99
66102;HTU21D;52883;51.094;5.880;2023-05-07T12:43:32;20.45;118.99
66102;HTU21D;52883;51.094;5.880;2023-05-07T12:46:01;20.58;118.99
66102;HTU21D;52883;51.094;5.880;2023-05-07T12:48:28;20.69;118.99
66102;HTU21D;52883;51.094;5.880;2023-05-07T12:50:55;20.66;118.99
66102;HTU21D;52883;51.094;5.880;2023-05-07T12:53:24;20.59;118.99
66102;HTU21D;52883;51.094;5.880;2023-05-07T12:55:53;20.56;118.99
66102;HTU21D;52883;51.094;5.880;2023-05-07T12:58:21;20.27;118.99
66102;HTU21D;52883;51.094;5.880;2023-05-07T13:00:50;20.31;118.99
66102;HTU21D;52883;51.094;5.880;2023-05-07T13:03:23;20.32;118.99
66102;HTU21D;52883;51.094;5.880;2023-05-07T13:05:50;20.44;118.99
66102;HTU21D;52883;51.094;5.880;2023-05-07T13:10:57;20.71;118.99
66102;HTU21D;52883;51.094;5.880;2023-05-07T13:13:22;20.92;118.99
66102;HTU21D;52883;51.094;5.880;2023-05-07T13:15:48;20.91;118.99
66102;HTU21D;52883;51.094;5.880;2023-05-07T13:18:14;20.89;118.99
66102;HTU21D;52883;51.094;5.880;2023-05-07T13:20:39;21.02;118.99
66102;HTU21D;52883;51.094;5.880;2023-05-07T13:23:06;21.16;118.99
66102;HTU21D;52883;51.094;5.880;2023-05-07T13:25:31;21.35;118.99
66102;HTU21D;52883;51.094;5.880;2023-05-07T13:27:57;21.54;118.99
66102;HTU21D;52883;51.094;5.880;2023-05-07T13:30:23;21.80;118.99
66102;HTU21D;52883;51.094;5.880;2023-05-07T13:32:48;21.77;118.99
66102;HTU21D;52883;51.094;5.880;2023-05-07T13:35:16;21.76;118.99
66102;HTU21D;52883;51.094;5.880;2023-05-07T13:37:41;21.97;118.99
66102;HTU21D;52883;51.094;5.880;2023-05-07T13:40:07;22.05;118.99
66102;HTU21D;52883;51.094;5.880;2023-05-07T13:42:33;22.12;118.99
66102;HTU21D;52883;51.094;5.880;2023-05-07T13:44:58;22.16;118.99
66102;HTU21D;52883;51.094;5.880;2023-05-07T13:47:24;22.34;118.99
66102;HTU21D;52883;51.094;5.880;2023-05-07T13:49:50;22.33;118.99
66102;HTU21D;52883;51.094;5.880;2023-05-07T13:52:16;22.33;118.99
66102;HTU21D;52883;51.094;5.880;2023-05-07T13:54:42;22.39;118.99
66102;HTU21D;52883;51.094;5.880;2023-05-07T13:57:08;22.44;118.99
66102;HTU21D;52883;51.094;5.880;2023-05-07T13:59:33;22.57;118.99
66102;HTU21D;52883;51.094;5.880;2023-05-07T14:01:59;22.72;118.99
66102;HTU21D;52883;51.094;5.880;2023-05-07T14:04:25;22.86;118.99
66102;HTU21D;52883;51.094;5.880;2023-05-07T14:06:51;22.91;118.99
66102;HTU21D;52883;51.094;5.880;2023-05-07T14:09:16;23.01;118.99
66102;HTU21D;52883;51.094;5.880;2023-05-07T14:11:42;22.92;118.99
66102;HTU21D;52883;51.094;5.880;2023-05-07T14:14:08;23.02;118.99
66102;HTU21D;52883;51.094;5.880;2023-05-07T14:16:37;22.93;118.99
66102;HTU21D;52883;51.094;5.880;2023-05-07T14:19:03;22.82;118.99
66102;HTU21D;52883;51.094;5.880;2023-05-07T14:21:28;22.81;118.99
66102;HTU21D;52883;51.094;5.880;2023-05-07T14:23:54;22.85;118.99
66102;HTU21D;52883;51.094;5.880;2023-05-07T14:26:21;22.83;118.99
66102;HTU21D;52883;51.094;5.880;2023-05-07T14:28:49;22.77;118.99
66102;HTU21D;52883;51.094;5.880;2023-05-07T14:31:14;22.75;118.99
66102;HTU21D;52883;51.094;5.880;2023-05-07T14:33:40;22.90;118.99
66102;HTU21D;52883;51.094;5.880;2023-05-07T14:36:06;23.00;118.99
66102;HTU21D;52883;51.094;5.880;2023-05-07T14:38:32;23.08;118.99
66102;HTU21D;52883;51.094;5.880;2023-05-07T14:40:58;23.02;118.99
66102;HTU21D;52883;51.094;5.880;2023-05-07T14:43:24;23.05;118.99
66102;HTU21D;52883;51.094;5.880;2023-05-07T14:45:50;22.88;118.99
66102;HTU21D;52883;51.094;5.880;2023-05-07T14:48:15;23.02;118.99
66102;HTU21D;52883;51.094;5.880;2023-05-07T14:50:42;22.96;118.99
66102;HTU21D;52883;51.094;5.880;2023-05-07T14:53:08;23.00;118.99
66102;HTU21D;52883;51.094;5.880;2023-05-07T14:55:44;22.98;118.99
66102;HTU21D;52883;51.094;5.880;2023-05-07T14:58:11;22.84;118.99
66102;HTU21D;52883;51.094;5.880;2023-05-07T15:00:36;22.69;118.99
66102;HTU21D;52883;51.094;5.880;2023-05-07T15:03:08;22.52;118.99
66102;HTU21D;52883;51.094;5.880;2023-05-07T15:05:35;22.53;118.99
66102;HTU21D;52883;51.094;5.880;2023-05-07T15:08:01;22.73;118.99
66102;HTU21D;52883;51.094;5.880;2023-05-07T15:10:27;22.68;118.99
66102;HTU21D;52883;51.094;5.880;2023-05-07T15:12:53;22.75;118.99